Time;durP1;ratioP1;P1;durP2;ratioP2;P2;SDS_P1;SDS_P2;PMS_P1;PMS_P2;Temp;Humidity;BMP_temperature;BMP_pressure;BME280_temperature;BME280_humidity;BME280_pressure;Samples;Min_cycle;Max_cycle;Signal;HPM_P1;HPM_P2
2023/03/11 00:02:16;;;;;;;;;;;;;;;;;;4416807;32;19948;-75
2023/03/11 00:04:42;;;;;;;;;;;;;;;;;;4416984;32;20318;-75
2023/03/11 00:07:08;;;;;;;;;;;;;;;;;;4419564;32;19944;-75
2023/03/11 00:09:33;;;;;;;;;;;;;;;;;;4408507;32;19941;-75
2023/03/11 00:11:58;;;;;;;;;;;;;;;;;;4409862;32;19938;-76
2023/03/11 00:14:23;;;;;;;;;;;;;;;;;;4408951;32;19993;-76
2023/03/11 00:16:48;;;;;;;;;;;;;;;;;;4410373;32;19941;-75
2023/03/11 00:19:13;;;;;;;;;;;;;;;;;;4420893;32;19952;-75
2023/03/11 00:21:38;;;;;;;;;;;;;;;;;;4410566;32;19945;-76
2023/03/11 00:24:03;;;;;;;;;;;;;;;;;;4409076;32;20311;-76
2023/03/11 00:26:28;;;;;;;;;;;;;;;;;;4409578;32;19933;-76
2023/03/11 00:28:54;;;;;;;;;;;;;;;;;;4421698;32;19941;-76
2023/03/11 00:31:19;;;;;;;;;;;;;;;;;;4408759;32;19973;-75
2023/03/11 00:33:44;;;;;;;;;;;;;;;;;;4411589;32;19937;-75
2023/03/11 00:36:09;;;;;;;;;;;;;;;;;;4433756;32;20342;-75
2023/03/11 00:38:34;;;;;;;;;;;;;;;;;;4422154;32;19944;-76
2023/03/11 00:41:00;;;;;;;;;;;;;;;;;;4423598;32;20334;-76
2023/03/11 00:43:25;;;;;;;;;;;;;;;;;;4422424;32;19933;-75
2023/03/11 00:45:51;;;;;;;;;;;;;;;;;;4422759;32;19988;-75
2023/03/11 00:48:16;;;;;;;;;;;;;;;;;;4423309;32;20337;-75
2023/03/11 00:50:41;;;;;;;;;;;;;;;;;;4424686;32;19988;-75
2023/03/11 00:53:06;;;;;;;;;;;;;;;;;;4423708;32;19948;-75
2023/03/11 00:55:31;;;;;;;;;;;;;;;;;;4423493;32;19973;-75
2023/03/11 00:57:56;;;;;;;;;;;;;;;;;;4424283;32;19947;-75
2023/03/11 01:00:21;;;;;;;;;;;;;;;;;;4425514;32;20316;-76
2023/03/11 01:02:46;;;;;;;;;;;;;;;;;;4425709;32;20251;-76
2023/03/11 01:05:11;;;;;;;;;;;;;;;;;;4422206;32;20318;-75
2023/03/11 01:07:37;;;;;;;;;;;;;;;;;;4423188;32;20286;-75
2023/03/11 01:10:02;;;;;;;;;;;;;;;;;;4425485;32;19995;-75
2023/03/11 01:12:27;;;;;;;;;;;;;;;;;;4422045;32;19936;-75
2023/03/11 01:14:52;;;;;;;;;;;;;;;;;;4424936;32;20025;-75
2023/03/11 01:17:17;;;;;;;;;;;;;;;;;;4423774;32;19932;-74
2023/03/11 01:19:43;;;;;;;;;;;;;;;;;;4424152;32;19968;-75
2023/03/11 01:22:09;;;;;;;;;;;;;;;;;;4424417;32;19936;-75
2023/03/11 01:24:34;;;;;;;;;;;;;;;;;;4424169;32;20345;-75
2023/03/11 01:26:59;;;;;;;;;;;;;;;;;;4425360;32;19951;-75
2023/03/11 01:29:24;;;;;;;;;;;;;;;;;;4424883;32;19984;-76
2023/03/11 01:31:49;;;;;;;;;;;;;;;;;;4423923;32;19967;-76
2023/03/11 01:34:14;;;;;;;;;;;;;;;;;;4424523;32;19951;-76
2023/03/11 01:36:39;;;;;;;;;;;;;;;;;;4423968;32;19975;-75
2023/03/11 01:39:04;;;;;;;;;;;;;;;;;;4425326;32;19977;-75
2023/03/11 01:41:30;;;;;;;;;;;;;;;;;;4424500;32;19971;-75
2023/03/11 01:43:55;;;;;;;;;;;;;;;;;;4426067;32;19945;-74
2023/03/11 01:46:20;;;;;;;;;;;;;;;;;;4422369;32;19961;-74
2023/03/11 01:48:45;;;;;;;;;;;;;;;;;;4423114;32;20315;-74
2023/03/11 01:51:10;;;;;;;;;;;;;;;;;;4423246;32;19988;-74
2023/03/11 01:53:36;;;;;;;;;;;;;;;;;;4423664;32;19933;-74
2023/03/11 01:56:01;;;;;;;;;;;;;;;;;;4426738;32;19960;-73
2023/03/11 01:58:26;;;;;;;;;;;;;;;;;;4428131;32;19994;-75
2023/03/11 02:00:51;;;;;;;;;;;;;;;;;;4428070;32;19991;-73
2023/03/11 02:03:16;;;;;;;;;;;;;;;;;;4433055;32;19948;-73
2023/03/11 02:05:42;;;;;;;;;;;;;;;;;;4429012;32;19970;-74
2023/03/11 02:08:07;;;;;;;;;;;;;;;;;;4429226;32;19974;-73
2023/03/11 02:10:32;;;;;;;;;;;;;;;;;;4430858;32;20367;-74
2023/03/11 02:12:57;;;;;;;;;;;;;;;;;;4431463;32;19933;-74
2023/03/11 02:15:22;;;;;;;;;;;;;;;;;;4432711;32;19972;-73
2023/03/11 02:17:47;;;;;;;;;;;;;;;;;;4433458;32;19933;-75
2023/03/11 02:20:12;;;;;;;;;;;;;;;;;;4429518;32;19977;-76
2023/03/11 02:22:37;;;;;;;;;;;;;;;;;;4429038;32;19937;-76
2023/03/11 02:25:02;;;;;;;;;;;;;;;;;;4429864;32;19987;-74
2023/03/11 02:27:28;;;;;;;;;;;;;;;;;;4429615;32;19941;-74
2023/03/11 02:29:53;;;;;;;;;;;;;;;;;;4433843;32;19937;-72
2023/03/11 02:32:18;;;;;;;;;;;;;;;;;;4434314;32;19937;-74
2023/03/11 02:34:44;;;;;;;;;;;;;;;;;;4430260;32;19937;-72
2023/03/11 02:37:09;;;;;;;;;;;;;;;;;;4426474;32;19952;-73
2023/03/11 02:39:34;;;;;;;;;;;;;;;;;;4414516;32;19941;-73
2023/03/11 02:41:59;;;;;;;;;;;;;;;;;;4413035;32;19944;-75
2023/03/11 02:44:24;;;;;;;;;;;;;;;;;;4410261;32;19956;-74
2023/03/11 02:46:49;;;;;;;;;;;;;;;;;;4409190;32;19948;-73
2023/03/11 02:49:14;;;;;;;;;;;;;;;;;;4409667;32;20274;-73
2023/03/11 02:51:39;;;;;;;;;;;;;;;;;;4431599;32;19956;-74
2023/03/11 02:54:04;;;;;;;;;;;;;;;;;;4424374;32;19960;-74
2023/03/11 02:56:29;;;;;;;;;;;;;;;;;;4433921;32;19994;-73
2023/03/11 02:58:55;;;;;;;;;;;;;;;;;;4422328;32;19949;-73
2023/03/11 03:01:20;;;;;;;;;;;;;;;;;;4423223;32;19956;-73
2023/03/11 03:03:45;;;;;;;;;;;;;;;;;;4422190;32;19945;-73
2023/03/11 03:06:10;;;;;;;;;;;;;;;;;;4422533;32;20363;-73
2023/03/11 03:08:35;;;;;;;;;;;;;;;;;;4421427;32;19936;-74
2023/03/11 03:11:02;;;;;;;;;;;;;;;;;;4421513;32;19941;-74
2023/03/11 03:13:27;;;;;;;;;;;;;;;;;;4433136;32;19963;-74
2023/03/11 03:15:52;;;;;;;;;;;;;;;;;;4434534;32;19941;-74
2023/03/11 03:18:17;;;;;;;;;;;;;;;;;;4433005;32;20337;-74
2023/03/11 03:20:42;;;;;;;;;;;;;;;;;;4422350;32;19987;-74
2023/03/11 03:23:07;;;;;;;;;;;;;;;;;;4425136;32;19959;-74
2023/03/11 03:25:32;;;;;;;;;;;;;;;;;;4410700;32;19979;-74
2023/03/11 03:27:57;;;;;;;;;;;;;;;;;;4418989;32;19961;-73
2023/03/11 03:30:23;;;;;;;;;;;;;;;;;;4418104;32;19981;-73
2023/03/11 03:32:48;;;;;;;;;;;;;;;;;;4406715;32;19957;-73
2023/03/11 03:35:13;;;;;;;;;;;;;;;;;;4405876;32;19937;-73
2023/03/11 03:37:38;;;;;;;;;;;;;;;;;;4405848;32;19941;-73
2023/03/11 03:40:06;;;;;;;;;;;;;;;;;;4407170;32;20308;-73
2023/03/11 03:42:31;;;;;;;;;;;;;;;;;;4406484;32;19933;-74
2023/03/11 03:44:57;;;;;;;;;;;;;;;;;;4405691;32;19948;-75
2023/03/11 03:47:22;;;;;;;;;;;;;;;;;;4407557;32;19980;-74
2023/03/11 03:49:47;;;;;;;;;;;;;;;;;;4411055;32;19945;-73
2023/03/11 03:52:12;;;;;;;;;;;;;;;;;;4420787;32;19972;-74
2023/03/11 03:54:37;;;;;;;;;;;;;;;;;;4421857;32;19941;-74
2023/03/11 03:57:03;;;;;;;;;;;;;;;;;;4432130;32;19992;-73
2023/03/11 03:59:28;;;;;;;;;;;;;;;;;;4421562;32;20337;-73
2023/03/11 04:01:53;;;;;;;;;;;;;;;;;;4433779;32;19996;-74
2023/03/11 04:04:18;;;;;;;;;;;;;;;;;;4432879;32;19941;-73
2023/03/11 04:06:43;;;;;;;;;;;;;;;;;;4422058;32;20254;-73
2023/03/11 04:09:08;;;;;;;;;;;;;;;;;;4420762;32;19945;-73
2023/03/11 04:11:33;;;;;;;;;;;;;;;;;;4420944;32;20295;-74
2023/03/11 04:13:59;;;;;;;;;;;;;;;;;;4433791;32;19952;-74
2023/03/11 04:16:24;;;;;;;;;;;;;;;;;;4433046;32;20300;-73
2023/03/11 04:18:49;;;;;;;;;;;;;;;;;;4431885;32;19960;-73
2023/03/11 04:21:14;;;;;;;;;;;;;;;;;;4420295;32;19937;-73
2023/03/11 04:23:39;;;;;;;;;;;;;;;;;;4420398;32;19952;-72
2023/03/11 04:26:04;;;;;;;;;;;;;;;;;;4420181;32;19937;-72
2023/03/11 04:28:29;;;;;;;;;;;;;;;;;;4420247;32;19975;-73
2023/03/11 04:30:54;;;;;;;;;;;;;;;;;;4422612;32;19944;-73
2023/03/11 04:33:19;;;;;;;;;;;;;;;;;;4432420;32;19937;-73
2023/03/11 04:35:44;;;;;;;;;;;;;;;;;;4420295;32;19941;-73
2023/03/11 04:38:10;;;;;;;;;;;;;;;;;;4421063;32;20313;-73
2023/03/11 04:40:35;;;;;;;;;;;;;;;;;;4420847;32;19941;-73
2023/03/11 04:43:00;;;;;;;;;;;;;;;;;;4420624;32;19947;-73
2023/03/11 04:45:25;;;;;;;;;;;;;;;;;;4421101;32;19947;-73
2023/03/11 04:47:50;;;;;;;;;;;;;;;;;;4433864;32;19994;-74
2023/03/11 04:50:15;;;;;;;;;;;;;;;;;;4422606;32;19938;-73
2023/03/11 04:52:40;;;;;;;;;;;;;;;;;;4419068;32;19975;-73
2023/03/11 04:55:05;;;;;;;;;;;;;;;;;;4409478;32;19945;-74
2023/03/11 04:57:30;;;;;;;;;;;;;;;;;;4408499;32;19993;-73
2023/03/11 04:59:56;;;;;;;;;;;;;;;;;;4409094;32;19948;-73
2023/03/11 05:02:21;;;;;;;;;;;;;;;;;;4408579;32;19950;-74
2023/03/11 05:04:46;;;;;;;;;;;;;;;;;;4420576;32;19952;-73
2023/03/11 05:07:11;;;;;;;;;;;;;;;;;;4420215;32;19937;-74
2023/03/11 05:09:36;;;;;;;;;;;;;;;;;;4408622;32;20401;-73
2023/03/11 05:12:01;;;;;;;;;;;;;;;;;;4408683;32;19968;-74
2023/03/11 05:14:26;;;;;;;;;;;;;;;;;;4407953;32;19973;-73
2023/03/11 05:16:51;;;;;;;;;;;;;;;;;;4408093;32;19955;-74
2023/03/11 05:19:35;;;;;;;;;;;;;;;;;;4420927;32;19989;-73
2023/03/11 05:22:01;;;;;;;;;;;;;;;;;;4407905;32;20274;-74
2023/03/11 05:24:26;;;;;;;;;;;;;;;;;;4408565;32;19945;-73
2023/03/11 05:26:51;;;;;;;;;;;;;;;;;;4407673;32;19945;-73
2023/03/11 05:29:16;;;;;;;;;;;;;;;;;;4409630;32;19964;-73
2023/03/11 05:31:41;;;;;;;;;;;;;;;;;;4410966;32;19945;-73
2023/03/11 05:34:06;;;;;;;;;;;;;;;;;;4408960;32;19949;-74
2023/03/11 05:36:31;;;;;;;;;;;;;;;;;;4408561;32;19988;-74
2023/03/11 05:38:56;;;;;;;;;;;;;;;;;;4407315;32;19934;-73
2023/03/11 05:41:22;;;;;;;;;;;;;;;;;;4407270;32;19969;-74
2023/03/11 05:43:47;;;;;;;;;;;;;;;;;;4407693;32;19952;-74
2023/03/11 05:46:12;;;;;;;;;;;;;;;;;;4407707;32;19933;-74
2023/03/11 05:48:37;;;;;;;;;;;;;;;;;;4418379;32;19960;-73
2023/03/11 05:51:02;;;;;;;;;;;;;;;;;;4407623;32;19947;-73
2023/03/11 05:53:27;;;;;;;;;;;;;;;;;;4408861;32;20015;-73
2023/03/11 05:55:52;;;;;;;;;;;;;;;;;;4418623;32;19999;-73
2023/03/11 05:58:17;;;;;;;;;;;;;;;;;;4408405;32;20316;-74
2023/03/11 06:00:42;;;;;;;;;;;;;;;;;;4407648;32;19977;-73
2023/03/11 06:03:08;;;;;;;;;;;;;;;;;;4406805;32;19942;-74
2023/03/11 06:05:33;;;;;;;;;;;;;;;;;;4406859;32;19984;-76
2023/03/11 06:07:58;;;;;;;;;;;;;;;;;;4418109;32;20259;-73
2023/03/11 06:10:23;;;;;;;;;;;;;;;;;;4407965;32;20266;-74
2023/03/11 06:12:48;;;;;;;;;;;;;;;;;;4408260;32;19984;-74
2023/03/11 06:15:13;;;;;;;;;;;;;;;;;;4417925;32;20323;-74
2023/03/11 06:17:38;;;;;;;;;;;;;;;;;;4408005;32;19952;-74
2023/03/11 06:20:04;;;;;;;;;;;;;;;;;;4406773;32;19971;-74
2023/03/11 06:22:30;;;;;;;;;;;;;;;;;;4417899;32;20274;-74
2023/03/11 06:24:55;;;;;;;;;;;;;;;;;;4407319;32;20232;-74
2023/03/11 06:27:20;;;;;;;;;;;;;;;;;;4418122;32;20359;-74
2023/03/11 06:29:45;;;;;;;;;;;;;;;;;;4406406;32;19976;-74
2023/03/11 06:32:10;;;;;;;;;;;;;;;;;;4407607;32;19985;-74
2023/03/11 06:34:36;;;;;;;;;;;;;;;;;;4406297;32;19946;-74
2023/03/11 06:37:01;;;;;;;;;;;;;;;;;;4408171;32;20312;-73
2023/03/11 06:39:26;;;;;;;;;;;;;;;;;;4407308;32;19937;-73
2023/03/11 06:41:51;;;;;;;;;;;;;;;;;;4418183;32;20003;-73
2023/03/11 06:44:16;;;;;;;;;;;;;;;;;;4408680;32;19930;-73
2023/03/11 06:46:42;;;;;;;;;;;;;;;;;;4417396;32;19980;-73
2023/03/11 06:49:07;;;;;;;;;;;;;;;;;;4406657;32;19980;-72
2023/03/11 06:51:32;;;;;;;;;;;;;;;;;;4417479;32;19933;-72
2023/03/11 06:53:57;;;;;;;;;;;;;;;;;;4407197;32;20330;-73
2023/03/11 06:56:22;;;;;;;;;;;;;;;;;;4407801;32;20028;-73
2023/03/11 06:58:47;;;;;;;;;;;;;;;;;;4417944;32;19993;-72
2023/03/11 07:01:13;;;;;;;;;;;;;;;;;;4406858;32;19941;-74
2023/03/11 07:03:38;;;;;;;;;;;;;;;;;;4421604;32;19937;-74
2023/03/11 07:06:03;;;;;;;;;;;;;;;;;;4414492;32;19985;-74
2023/03/11 07:08:28;;;;;;;;;;;;;;;;;;4406115;32;19945;-75
2023/03/11 07:10:53;;;;;;;;;;;;;;;;;;4417366;32;19983;-74
2023/03/11 07:13:18;;;;;;;;;;;;;;;;;;4406151;32;19953;-74
2023/03/11 07:15:43;;;;;;;;;;;;;;;;;;4406555;32;19971;-74
2023/03/11 07:18:08;;;;;;;;;;;;;;;;;;4407101;32;19971;-74
2023/03/11 07:20:33;;;;;;;;;;;;;;;;;;4420789;32;19945;-73
2023/03/11 07:22:58;;;;;;;;;;;;;;;;;;4421098;32;19945;-74
2023/03/11 07:25:24;;;;;;;;;;;;;;;;;;4433471;32;19949;-74
2023/03/11 07:27:49;;;;;;;;;;;;;;;;;;4420870;32;19951;-74
2023/03/11 07:30:14;;;;;;;;;;;;;;;;;;4421161;32;19994;-74
2023/03/11 07:32:39;;;;;;;;;;;;;;;;;;4422386;32;19946;-74
2023/03/11 07:35:04;;;;;;;;;;;;;;;;;;4420551;32;19951;-73
2023/03/11 07:37:29;;;;;;;;;;;;;;;;;;4421228;32;20262;-74
2023/03/11 07:39:54;;;;;;;;;;;;;;;;;;4433269;32;19989;-73
2023/03/11 07:42:20;;;;;;;;;;;;;;;;;;4422303;32;19989;-73
2023/03/11 07:44:45;;;;;;;;;;;;;;;;;;4422008;32;19956;-74
2023/03/11 07:47:10;;;;;;;;;;;;;;;;;;4433659;32;19933;-74
2023/03/11 07:49:35;;;;;;;;;;;;;;;;;;4433672;32;19994;-74
2023/03/11 07:52:00;;;;;;;;;;;;;;;;;;4413034;32;19961;-73
2023/03/11 07:54:25;;;;;;;;;;;;;;;;;;4419944;32;19955;-74
2023/03/11 07:56:50;;;;;;;;;;;;;;;;;;4407473;32;19974;-74
2023/03/11 07:59:16;;;;;;;;;;;;;;;;;;4406393;32;19941;-75
2023/03/11 08:01:45;;;;;;;;;;;;;;;;;;4406299;32;19934;-74
2023/03/11 08:04:11;;;;;;;;;;;;;;;;;;4406670;32;19941;-74
2023/03/11 08:06:36;;;;;;;;;;;;;;;;;;4407622;32;19957;-74
2023/03/11 08:09:01;;;;;;;;;;;;;;;;;;4416773;32;19942;-73
2023/03/11 08:11:26;;;;;;;;;;;;;;;;;;4405233;32;19957;-74
2023/03/11 08:13:52;;;;;;;;;;;;;;;;;;4405203;32;19933;-74
2023/03/11 08:16:17;;;;;;;;;;;;;;;;;;4404773;32;19971;-74
2023/03/11 08:18:42;;;;;;;;;;;;;;;;;;4411788;32;20004;-74
2023/03/11 08:21:07;;;;;;;;;;;;;;;;;;4418417;32;19941;-74
2023/03/11 08:23:32;;;;;;;;;;;;;;;;;;4432084;32;19934;-74
2023/03/11 08:25:58;;;;;;;;;;;;;;;;;;4420146;32;20288;-74
2023/03/11 08:28:23;;;;;;;;;;;;;;;;;;4424387;32;20315;-74
2023/03/11 08:30:48;;;;;;;;;;;;;;;;;;4423164;32;19942;-74
2023/03/11 08:33:13;;;;;;;;;;;;;;;;;;4422578;32;20251;-74
2023/03/11 08:35:38;;;;;;;;;;;;;;;;;;4424892;32;19957;-73
2023/03/11 08:38:03;;;;;;;;;;;;;;;;;;4423796;32;19941;-74
2023/03/11 08:40:28;;;;;;;;;;;;;;;;;;4423184;32;19937;-73
2023/03/11 08:42:53;;;;;;;;;;;;;;;;;;4424593;32;19950;-74
2023/03/11 08:45:19;;;;;;;;;;;;;;;;;;4421620;32;19952;-75
2023/03/11 08:47:44;;;;;;;;;;;;;;;;;;4425271;32;19947;-74
2023/03/11 08:50:09;;;;;;;;;;;;;;;;;;4423153;32;19984;-73
2023/03/11 08:52:34;;;;;;;;;;;;;;;;;;4423356;32;19980;-74
2023/03/11 08:54:59;;;;;;;;;;;;;;;;;;4422776;32;19945;-75
2023/03/11 08:57:24;;;;;;;;;;;;;;;;;;4423327;32;19948;-77
2023/03/11 08:59:50;;;;;;;;;;;;;;;;;;4422969;32;19933;-76
2023/03/11 09:02:16;;;;;;;;;;;;;;;;;;4424796;32;19971;-76
2023/03/11 09:04:41;;;;;;;;;;;;;;;;;;4422941;32;19942;-75
2023/03/11 09:07:06;;;;;;;;;;;;;;;;;;4434005;32;20331;-76
2023/03/11 09:09:31;;;;;;;;;;;;;;;;;;4422887;32;19937;-76
2023/03/11 09:11:56;;;;;;;;;;;;;;;;;;4424045;32;19949;-77
2023/03/11 09:14:21;;;;;;;;;;;;;;;;;;4424591;32;19981;-76
2023/03/11 09:16:46;;;;;;;;;;;;;;;;;;4424504;32;19970;-76
2023/03/11 09:19:11;;;;;;;;;;;;;;;;;;4424612;32;19993;-76
2023/03/11 09:21:36;;;;;;;;;;;;;;;;;;4422500;32;19973;-76
2023/03/11 09:24:03;;;;;;;;;;;;;;;;;;4434698;32;19989;-76
2023/03/11 09:26:28;;;;;;;;;;;;;;;;;;4434507;32;19933;-76
2023/03/11 09:28:53;;;;;;;;;;;;;;;;;;4434939;32;19941;-82
2023/03/11 09:31:18;;;;;;;;;;;;;;;;;;4435828;32;19937;-77
2023/03/11 09:33:43;;;;;;;;;;;;;;;;;;4434285;32;19947;-78
2023/03/11 09:36:08;;;;;;;;;;;;;;;;;;4435173;32;19944;-78
2023/03/11 09:38:34;;;;;;;;;;;;;;;;;;4436523;32;19937;-77
2023/03/11 09:40:59;;;;;;;;;;;;;;;;;;4438207;32;20323;-77
2023/03/11 09:43:24;;;;;;;;;;;;;;;;;;4435561;32;19937;-77
2023/03/11 09:45:49;;;;;;;;;;;;;;;;;;4434213;32;19953;-78
2023/03/11 09:48:15;;;;;;;;;;;;;;;;;;4433894;32;19941;-79
2023/03/11 09:50:40;;;;;;;;;;;;;;;;;;4423110;32;19941;-78
2023/03/11 09:53:07;;;;;;;;;;;;;;;;;;4421817;32;20047;-77
2023/03/11 09:55:32;;;;;;;;;;;;;;;;;;4422631;32;20099;-78
2023/03/11 09:57:57;;;;;;;;;;;;;;;;;;4422271;32;19941;-77
2023/03/11 10:00:22;;;;;;;;;;;;;;;;;;4422580;32;19987;-79
2023/03/11 10:02:47;;;;;;;;;;;;;;;;;;4424976;32;19933;-77
2023/03/11 10:05:13;;;;;;;;;;;;;;;;;;4426068;32;19968;-77
2023/03/11 10:07:38;;;;;;;;;;;;;;;;;;4422276;32;20319;-77
2023/03/11 10:10:03;;;;;;;;;;;;;;;;;;4422694;32;20032;-77
2023/03/11 10:12:28;;;;;;;;;;;;;;;;;;4434406;32;20318;-77
2023/03/11 10:14:53;;;;;;;;;;;;;;;;;;4434118;32;19945;-76
2023/03/11 10:17:19;;;;;;;;;;;;;;;;;;4422250;32;19937;-78
2023/03/11 10:19:44;;;;;;;;;;;;;;;;;;4408043;32;19971;-78
2023/03/11 10:22:10;;;;;;;;;;;;;;;;;;4419518;32;19937;-76
2023/03/11 10:24:35;;;;;;;;;;;;;;;;;;4421769;32;20231;-78
2023/03/11 10:27:00;;;;;;;;;;;;;;;;;;4422115;32;20313;-76
2023/03/11 10:29:25;;;;;;;;;;;;;;;;;;4421509;32;19941;-77
2023/03/11 10:31:51;;;;;;;;;;;;;;;;;;4422776;32;19952;-77
2023/03/11 10:34:16;;;;;;;;;;;;;;;;;;4422439;32;20015;-77
2023/03/11 10:36:41;;;;;;;;;;;;;;;;;;4421642;32;19962;-78
2023/03/11 10:39:06;;;;;;;;;;;;;;;;;;4421801;32;19941;-77
2023/03/11 10:41:31;;;;;;;;;;;;;;;;;;4422592;32;19993;-77
2023/03/11 10:43:56;;;;;;;;;;;;;;;;;;4422298;32;19934;-77
2023/03/11 10:46:22;;;;;;;;;;;;;;;;;;4425002;32;19937;-76
2023/03/11 10:48:47;;;;;;;;;;;;;;;;;;4425251;32;20235;-77
2023/03/11 10:51:12;;;;;;;;;;;;;;;;;;4425297;32;19976;-78
2023/03/11 10:53:38;;;;;;;;;;;;;;;;;;4424370;32;19936;-78
2023/03/11 10:56:03;;;;;;;;;;;;;;;;;;4422339;32;20032;-78
2023/03/11 10:58:28;;;;;;;;;;;;;;;;;;4421876;32;19945;-77
2023/03/11 11:00:53;;;;;;;;;;;;;;;;;;4421198;32;19937;-76
2023/03/11 11:03:18;;;;;;;;;;;;;;;;;;4421311;32;19951;-77
2023/03/11 11:05:43;;;;;;;;;;;;;;;;;;4419835;32;19972;-78
2023/03/11 11:08:08;;;;;;;;;;;;;;;;;;4421548;32;19933;-78
2023/03/11 11:10:34;;;;;;;;;;;;;;;;;;4420824;32;19951;-78
2023/03/11 11:12:59;;;;;;;;;;;;;;;;;;4421795;32;20220;-78
2023/03/11 11:15:24;;;;;;;;;;;;;;;;;;4420484;32;19941;-76
2023/03/11 11:17:49;;;;;;;;;;;;;;;;;;4420922;32;19957;-77
2023/03/11 11:20:14;;;;;;;;;;;;;;;;;;4421431;32;20282;-77
2023/03/11 11:22:40;;;;;;;;;;;;;;;;;;4422463;32;19951;-76
2023/03/11 11:25:05;;;;;;;;;;;;;;;;;;4424414;32;19976;-78
2023/03/11 11:27:31;;;;;;;;;;;;;;;;;;4433986;32;19929;-77
2023/03/11 11:29:56;;;;;;;;;;;;;;;;;;4425808;32;20319;-78
2023/03/11 11:32:21;;;;;;;;;;;;;;;;;;4423390;32;20205;-77
2023/03/11 11:34:47;;;;;;;;;;;;;;;;;;4420065;32;19941;-77
2023/03/11 11:37:12;;;;;;;;;;;;;;;;;;4419507;32;20357;-77
2023/03/11 11:39:37;;;;;;;;;;;;;;;;;;4420576;32;19970;-78
2023/03/11 11:42:02;;;;;;;;;;;;;;;;;;4421616;32;19970;-76
2023/03/11 11:44:28;;;;;;;;;;;;;;;;;;4422511;32;20011;-77
2023/03/11 11:46:53;;;;;;;;;;;;;;;;;;4429303;32;20010;-76
2023/03/11 11:49:18;;;;;;;;;;;;;;;;;;4424408;32;20263;-76
2023/03/11 11:51:43;;;;;;;;;;;;;;;;;;4420051;32;19987;-75
2023/03/11 11:54:08;;;;;;;;;;;;;;;;;;4421944;32;19933;-76
2023/03/11 11:56:34;;;;;;;;;;;;;;;;;;4422568;32;19968;-76
2023/03/11 11:58:59;;;;;;;;;;;;;;;;;;4425510;32;19933;-76
2023/03/11 12:01:24;;;;;;;;;;;;;;;;;;4424577;32;19938;-77
2023/03/11 12:03:49;;;;;;;;;;;;;;;;;;4423680;32;19985;-77
2023/03/11 12:06:14;;;;;;;;;;;;;;;;;;4424516;32;19960;-77
2023/03/11 12:08:39;;;;;;;;;;;;;;;;;;4423955;32;19941;-77
2023/03/11 12:11:04;;;;;;;;;;;;;;;;;;4423601;32;19941;-77
2023/03/11 12:13:29;;;;;;;;;;;;;;;;;;4424171;32;19937;-77
2023/03/11 12:15:54;;;;;;;;;;;;;;;;;;4433022;32;19960;-77
2023/03/11 12:18:20;;;;;;;;;;;;;;;;;;4439539;32;19937;-76
2023/03/11 12:20:45;;;;;;;;;;;;;;;;;;4438190;32;19937;-77
2023/03/11 12:23:10;;;;;;;;;;;;;;;;;;4439806;32;19933;-76
2023/03/11 12:25:35;;;;;;;;;;;;;;;;;;4438013;32;19937;-76
2023/03/11 12:28:02;;;;;;;;;;;;;;;;;;4437542;32;19936;-77
2023/03/11 12:30:29;;;;;;;;;;;;;;;;;;4437164;32;19944;-75
2023/03/11 12:32:54;;;;;;;;;;;;;;;;;;4439066;32;19945;-76
2023/03/11 12:35:19;;;;;;;;;;;;;;;;;;4439244;32;19976;-77
2023/03/11 12:37:44;;;;;;;;;;;;;;;;;;4438741;32;19933;-76
2023/03/11 12:40:09;;;;;;;;;;;;;;;;;;4437507;32;19937;-77
2023/03/11 12:42:34;;;;;;;;;;;;;;;;;;4438897;32;19940;-76
2023/03/11 12:44:59;;;;;;;;;;;;;;;;;;4437408;32;20254;-77
2023/03/11 12:47:26;;;;;;;;;;;;;;;;;;4439841;32;19976;-75
2023/03/11 12:49:53;;;;;;;;;;;;;;;;;;4438087;32;20351;-76
2023/03/11 12:52:18;;;;;;;;;;;;;;;;;;4437574;32;19928;-76
2023/03/11 12:54:43;;;;;;;;;;;;;;;;;;4438477;32;19950;-76
2023/03/11 12:57:08;;;;;;;;;;;;;;;;;;4437873;32;19988;-76
2023/03/11 12:59:34;;;;;;;;;;;;;;;;;;4438016;32;20338;-76
2023/03/11 13:01:59;;;;;;;;;;;;;;;;;;4437862;32;19966;-76
2023/03/11 13:04:24;;;;;;;;;;;;;;;;;;4437190;32;19941;-76
2023/03/11 13:06:49;;;;;;;;;;;;;;;;;;4436749;32;19936;-76
2023/03/11 13:09:14;;;;;;;;;;;;;;;;;;4436555;32;20022;-77
2023/03/11 13:11:39;;;;;;;;;;;;;;;;;;4436786;32;19951;-76
2023/03/11 13:14:04;;;;;;;;;;;;;;;;;;4438194;32;19937;-76
2023/03/11 13:16:29;;;;;;;;;;;;;;;;;;4438193;32;19952;-76
2023/03/11 13:18:54;;;;;;;;;;;;;;;;;;4438412;32;19937;-75
2023/03/11 13:21:19;;;;;;;;;;;;;;;;;;4436990;32;19975;-76
2023/03/11 13:23:45;;;;;;;;;;;;;;;;;;4438337;32;19932;-76
2023/03/11 13:26:10;;;;;;;;;;;;;;;;;;4436748;32;20356;-76
2023/03/11 13:28:35;;;;;;;;;;;;;;;;;;4438454;32;19951;-75
2023/03/11 13:31:01;;;;;;;;;;;;;;;;;;4438513;32;19965;-75
2023/03/11 13:33:26;;;;;;;;;;;;;;;;;;4419866;32;20304;-76
2023/03/11 13:35:51;;;;;;;;;;;;;;;;;;4413429;32;19937;-75
2023/03/11 13:38:16;;;;;;;;;;;;;;;;;;4409935;32;19933;-76
2023/03/11 13:40:41;;;;;;;;;;;;;;;;;;4408523;32;19975;-77
2023/03/11 13:43:06;;;;;;;;;;;;;;;;;;4406617;32;19938;-77
2023/03/11 13:45:33;;;;;;;;;;;;;;;;;;4408423;32;19933;-76
2023/03/11 13:47:58;;;;;;;;;;;;;;;;;;4407018;32;19990;-76
2023/03/11 13:50:24;;;;;;;;;;;;;;;;;;4407794;32;19964;-76
2023/03/11 13:52:49;;;;;;;;;;;;;;;;;;4407278;32;19934;-77
2023/03/11 13:55:14;;;;;;;;;;;;;;;;;;4408012;32;19948;-75
2023/03/11 13:57:39;;;;;;;;;;;;;;;;;;4407162;32;19937;-76
2023/03/11 14:00:04;;;;;;;;;;;;;;;;;;4407631;32;19968;-76
2023/03/11 14:02:29;;;;;;;;;;;;;;;;;;4409138;32;19933;-76
2023/03/11 14:04:54;;;;;;;;;;;;;;;;;;4422704;32;20237;-77
2023/03/11 14:07:19;;;;;;;;;;;;;;;;;;4422212;32;19941;-76
2023/03/11 14:09:45;;;;;;;;;;;;;;;;;;4420949;32;19987;-77
2023/03/11 14:12:10;;;;;;;;;;;;;;;;;;4423687;32;19937;-77
2023/03/11 14:14:35;;;;;;;;;;;;;;;;;;4425268;32;19978;-75
2023/03/11 14:17:02;;;;;;;;;;;;;;;;;;4424922;32;19952;-78
2023/03/11 14:19:27;;;;;;;;;;;;;;;;;;4421688;32;19975;-76
2023/03/11 14:21:54;;;;;;;;;;;;;;;;;;4421794;32;19977;-76
2023/03/11 14:24:19;;;;;;;;;;;;;;;;;;4421918;32;20299;-77
2023/03/11 14:26:44;;;;;;;;;;;;;;;;;;4421993;32;20349;-77
2023/03/11 14:29:09;;;;;;;;;;;;;;;;;;4421896;32;19971;-76
2023/03/11 14:31:34;;;;;;;;;;;;;;;;;;4422250;32;19993;-77
2023/03/11 14:34:03;;;;;;;;;;;;;;;;;;4421539;32;19937;-77
2023/03/11 14:36:28;;;;;;;;;;;;;;;;;;4420685;32;19933;-77
2023/03/11 14:38:53;;;;;;;;;;;;;;;;;;4422017;32;20009;-77
2023/03/11 14:41:18;;;;;;;;;;;;;;;;;;4421117;32;19971;-76
2023/03/11 14:43:43;;;;;;;;;;;;;;;;;;4422072;32;19976;-77
2023/03/11 14:46:11;;;;;;;;;;;;;;;;;;4420734;32;20334;-77
2023/03/11 14:48:36;;;;;;;;;;;;;;;;;;4421927;32;19961;-77
2023/03/11 14:51:01;;;;;;;;;;;;;;;;;;4421455;32;19933;-77
2023/03/11 14:53:26;;;;;;;;;;;;;;;;;;4421475;32;19976;-77
2023/03/11 14:55:51;;;;;;;;;;;;;;;;;;4422859;32;19933;-77
2023/03/11 14:58:16;;;;;;;;;;;;;;;;;;4424262;32;19956;-77
2023/03/11 15:00:41;;;;;;;;;;;;;;;;;;4423708;32;19951;-78
2023/03/11 15:03:07;;;;;;;;;;;;;;;;;;4424482;32;19937;-77
2023/03/11 15:05:33;;;;;;;;;;;;;;;;;;4422688;32;19933;-78
2023/03/11 15:07:58;;;;;;;;;;;;;;;;;;4422234;32;20341;-77
2023/03/11 15:10:23;;;;;;;;;;;;;;;;;;4420459;32;19968;-77
2023/03/11 15:12:48;;;;;;;;;;;;;;;;;;4421693;32;19938;-77
2023/03/11 15:15:13;;;;;;;;;;;;;;;;;;4421556;32;20193;-77
2023/03/11 15:17:38;;;;;;;;;;;;;;;;;;4423214;32;19956;-77
2023/03/11 15:20:06;;;;;;;;;;;;;;;;;;4420551;32;19995;-77
2023/03/11 15:22:31;;;;;;;;;;;;;;;;;;4420140;32;19928;-77
2023/03/11 15:24:56;;;;;;;;;;;;;;;;;;4421642;32;19951;-77
2023/03/11 15:27:21;;;;;;;;;;;;;;;;;;4421100;32;20000;-77
2023/03/11 15:29:46;;;;;;;;;;;;;;;;;;4420986;32;20268;-78
2023/03/11 15:32:12;;;;;;;;;;;;;;;;;;4420522;32;19937;-77
2023/03/11 15:34:37;;;;;;;;;;;;;;;;;;4421588;32;19945;-76
2023/03/11 15:37:02;;;;;;;;;;;;;;;;;;4421764;32;19964;-78
2023/03/11 15:39:30;;;;;;;;;;;;;;;;;;4437077;32;19937;-77
2023/03/11 15:41:56;;;;;;;;;;;;;;;;;;4440197;32;19952;-78
2023/03/11 15:44:21;;;;;;;;;;;;;;;;;;4421786;32;20380;-76
2023/03/11 15:46:46;;;;;;;;;;;;;;;;;;4404729;32;19969;-76
2023/03/11 15:49:11;;;;;;;;;;;;;;;;;;4406455;32;19952;-76
2023/03/11 15:51:36;;;;;;;;;;;;;;;;;;4404857;32;19952;-77
2023/03/11 15:54:01;;;;;;;;;;;;;;;;;;4404242;32;19948;-77
2023/03/11 15:56:26;;;;;;;;;;;;;;;;;;4404486;32;19945;-77
2023/03/11 15:58:52;;;;;;;;;;;;;;;;;;4405807;32;20299;-77
2023/03/11 16:01:21;;;;;;;;;;;;;;;;;;4406141;32;20344;-78
2023/03/11 16:03:46;;;;;;;;;;;;;;;;;;4405518;32;19933;-78
2023/03/11 16:06:11;;;;;;;;;;;;;;;;;;4404524;32;19948;-78
2023/03/11 16:08:37;;;;;;;;;;;;;;;;;;4405477;32;19934;-78
2023/03/11 16:11:02;;;;;;;;;;;;;;;;;;4420849;32;20281;-77
2023/03/11 16:13:27;;;;;;;;;;;;;;;;;;4419794;32;20001;-85
2023/03/11 16:15:52;;;;;;;;;;;;;;;;;;4409511;32;20374;-84
2023/03/11 16:18:18;;;;;;;;;;;;;;;;;;4437224;32;19951;-83
2023/03/11 16:20:43;;;;;;;;;;;;;;;;;;4445288;32;19969;-83
2023/03/11 16:23:08;;;;;;;;;;;;;;;;;;4444340;32;19933;-83
2023/03/11 16:25:33;;;;;;;;;;;;;;;;;;4444630;32;19991;-82
2023/03/11 16:27:58;;;;;;;;;;;;;;;;;;4443873;32;19937;-84
2023/03/11 16:30:23;;;;;;;;;;;;;;;;;;4446131;32;20377;-83
2023/03/11 16:32:48;;;;;;;;;;;;;;;;;;4442666;32;19933;-83